createdAt,value
2018-12-04T07:22:18.281Z,23.692
2018-12-04T07:22:34.309Z,23.793
2018-12-04T07:22:50.162Z,23.764
2018-12-04T07:23:06.229Z,23.724
2018-12-04T07:23:22.135Z,23.737
2018-12-04T07:23:37.985Z,23.678
2018-12-04T07:23:53.832Z,23.622
2018-12-04T07:24:09.761Z,23.662
2018-12-04T07:24:25.633Z,23.678
2018-12-04T07:24:41.510Z,23.635
2018-12-04T07:24:57.417Z,23.579
2018-12-04T07:25:13.306Z,23.593
2018-12-04T07:25:29.268Z,23.635
2018-12-04T07:25:45.184Z,23.622
2018-12-04T07:26:01.080Z,23.579
2018-12-04T07:26:16.944Z,23.635
2018-12-04T07:26:32.806Z,23.635
2018-12-04T07:26:48.662Z,23.649
2018-12-04T07:27:04.509Z,23.692
2018-12-04T07:27:20.388Z,23.635
2018-12-04T07:27:36.435Z,23.622
2018-12-04T07:27:52.282Z,23.635
2018-12-04T07:28:08.153Z,23.635
2018-12-04T07:28:24.120Z,23.649
2018-12-04T07:28:40.068Z,23.678
2018-12-04T07:28:55.970Z,23.662
2018-12-04T07:29:11.855Z,23.649
2018-12-04T07:29:27.717Z,23.662
2018-12-04T07:29:43.581Z,23.692
2018-12-04T07:29:59.429Z,23.635
2018-12-04T07:30:15.316Z,23.708
2018-12-04T07:30:31.180Z,23.708
2018-12-04T07:30:47.014Z,23.692
2018-12-04T07:31:02.861Z,23.708
2018-12-04T07:31:18.707Z,23.708
2018-12-04T07:31:34.616Z,23.678
2018-12-04T07:31:50.539Z,23.678
2018-12-04T07:32:06.758Z,23.75
2018-12-04T07:32:22.656Z,23.737
2018-12-04T07:32:38.855Z,23.764
2018-12-04T07:32:54.913Z,23.708
2018-12-04T07:33:10.741Z,23.737
2018-12-04T07:33:26.624Z,23.708
2018-12-04T07:33:42.489Z,23.678
2018-12-04T07:33:58.377Z,23.678
2018-12-04T07:34:14.222Z,23.724
2018-12-04T07:34:30.287Z,23.724
2018-12-04T07:34:46.306Z,23.708
2018-12-04T07:35:02.263Z,23.692
2018-12-04T07:35:18.130Z,23.724
2018-12-04T07:35:34.006Z,23.708
2018-12-04T07:35:49.862Z,23.724
2018-12-04T07:36:05.746Z,23.764
2018-12-04T07:36:21.655Z,23.708
2018-12-04T07:36:37.535Z,23.724
2018-12-04T07:36:53.391Z,23.724
2018-12-04T07:37:09.259Z,23.75
